sensor_id;sensor_type;location;lat;lon;timestamp;P1;durP1;ratioP1;P2;durP2;ratioP2
9310;SDS011;4694;52.464;13.480;2023-02-17T06:39:12;59.67;;;26.35;;
9310;SDS011;4694;52.464;13.480;2023-02-17T06:41:39;69.72;;;36.17;;
9310;SDS011;4694;52.464;13.480;2023-02-17T06:44:07;60.78;;;30.77;;
9310;SDS011;4694;52.464;13.480;2023-02-17T06:46:33;59.95;;;32.92;;
9310;SDS011;4694;52.464;13.480;2023-02-17T06:49:00;57.35;;;29.50;;
9310;SDS011;4694;52.464;13.480;2023-02-17T06:51:28;64.65;;;33.55;;
9310;SDS011;4694;52.464;13.480;2023-02-17T06:53:55;53.00;;;30.25;;
9310;SDS011;4694;52.464;13.480;2023-02-17T06:56:23;64.40;;;36.20;;
9310;SDS011;4694;52.464;13.480;2023-02-17T06:58:50;58.22;;;30.38;;
9310;SDS011;4694;52.464;13.480;2023-02-17T07:01:18;54.17;;;27.92;;
9310;SDS011;4694;52.464;13.480;2023-02-17T07:03:46;48.38;;;27.77;;
9310;SDS011;4694;52.464;13.480;2023-02-17T07:06:13;47.53;;;26.15;;
9310;SDS011;4694;52.464;13.480;2023-02-17T07:08:40;55.75;;;29.33;;
9310;SDS011;4694;52.464;13.480;2023-02-17T07:11:08;53.45;;;26.90;;
9310;SDS011;4694;52.464;13.480;2023-02-17T07:13:37;46.35;;;26.08;;
9310;SDS011;4694;52.464;13.480;2023-02-17T07:16:05;48.78;;;26.17;;
9310;SDS011;4694;52.464;13.480;2023-02-17T07:18:32;48.08;;;25.05;;
9310;SDS011;4694;52.464;13.480;2023-02-17T07:21:00;44.58;;;25.20;;
9310;SDS011;4694;52.464;13.480;2023-02-17T07:23:28;49.63;;;26.98;;
9310;SDS011;4694;52.464;13.480;2023-02-17T07:25:55;50.45;;;26.50;;
9310;SDS011;4694;52.464;13.480;2023-02-17T07:28:26;47.13;;;23.70;;
9310;SDS011;4694;52.464;13.480;2023-02-17T07:30:55;43.08;;;25.85;;
9310;SDS011;4694;52.464;13.480;2023-02-17T07:33:22;43.55;;;22.45;;
9310;SDS011;4694;52.464;13.480;2023-02-17T07:35:49;42.78;;;24.38;;
9310;SDS011;4694;52.464;13.480;2023-02-17T07:38:16;41.53;;;23.73;;
9310;SDS011;4694;52.464;13.480;2023-02-17T07:40:43;45.45;;;24.98;;
9310;SDS011;4694;52.464;13.480;2023-02-17T07:43:10;44.63;;;25.10;;
9310;SDS011;4694;52.464;13.480;2023-02-17T07:45:37;41.13;;;21.35;;
9310;SDS011;4694;52.464;13.480;2023-02-17T07:48:05;38.35;;;21.65;;
9310;SDS011;4694;52.464;13.480;2023-02-17T07:50:32;39.20;;;22.90;;
9310;SDS011;4694;52.464;13.480;2023-02-17T07:52:59;36.58;;;21.85;;
9310;SDS011;4694;52.464;13.480;2023-02-17T07:55:26;39.78;;;21.33;;
9310;SDS011;4694;52.464;13.480;2023-02-17T07:57:53;36.78;;;20.88;;
9310;SDS011;4694;52.464;13.480;2023-02-17T08:00:20;39.80;;;22.27;;
9310;SDS011;4694;52.464;13.480;2023-02-17T08:02:47;39.20;;;21.35;;
9310;SDS011;4694;52.464;13.480;2023-02-17T08:05:16;34.78;;;21.15;;
9310;SDS011;4694;52.464;13.480;2023-02-17T08:07:43;37.33;;;20.10;;
9310;SDS011;4694;52.464;13.480;2023-02-17T08:10:10;33.60;;;19.20;;
9310;SDS011;4694;52.464;13.480;2023-02-17T08:12:56;30.75;;;17.60;;
9310;SDS011;4694;52.464;13.480;2023-02-17T08:15:41;34.80;;;18.98;;
9310;SDS011;4694;52.464;13.480;2023-02-17T08:18:09;33.00;;;20.60;;
9310;SDS011;4694;52.464;13.480;2023-02-17T08:20:37;31.13;;;19.42;;
9310;SDS011;4694;52.464;13.480;2023-02-17T08:23:13;36.05;;;19.35;;
9310;SDS011;4694;52.464;13.480;2023-02-17T08:25:40;28.58;;;17.85;;
9310;SDS011;4694;52.464;13.480;2023-02-17T08:28:09;33.30;;;18.33;;
9310;SDS011;4694;52.464;13.480;2023-02-17T08:30:37;30.42;;;17.77;;
9310;SDS011;4694;52.464;13.480;2023-02-17T08:33:04;26.75;;;17.25;;
9310;SDS011;4694;52.464;13.480;2023-02-17T08:35:31;29.50;;;17.85;;
9310;SDS011;4694;52.464;13.480;2023-02-17T08:37:59;27.85;;;17.05;;
9310;SDS011;4694;52.464;13.480;2023-02-17T08:40:26;28.35;;;18.25;;
9310;SDS011;4694;52.464;13.480;2023-02-17T08:42:54;32.10;;;18.42;;
9310;SDS011;4694;52.464;13.480;2023-02-17T08:45:21;31.38;;;18.30;;
9310;SDS011;4694;52.464;13.480;2023-02-17T08:47:48;29.75;;;19.08;;
9310;SDS011;4694;52.464;13.480;2023-02-17T08:50:16;33.22;;;18.52;;
9310;SDS011;4694;52.464;13.480;2023-02-17T08:52:44;28.10;;;17.83;;
9310;SDS011;4694;52.464;13.480;2023-02-17T08:55:12;33.95;;;18.98;;
9310;SDS011;4694;52.464;13.480;2023-02-17T08:57:42;31.52;;;17.05;;
9310;SDS011;4694;52.464;13.480;2023-02-17T09:00:09;29.23;;;17.83;;
9310;SDS011;4694;52.464;13.480;2023-02-17T09:02:37;32.05;;;19.88;;
9310;SDS011;4694;52.464;13.480;2023-02-17T09:05:07;35.88;;;19.33;;
9310;SDS011;4694;52.464;13.480;2023-02-17T09:07:35;33.97;;;19.13;;
9310;SDS011;4694;52.464;13.480;2023-02-17T09:10:03;29.63;;;18.15;;
9310;SDS011;4694;52.464;13.480;2023-02-17T09:12:31;32.00;;;18.30;;
9310;SDS011;4694;52.464;13.480;2023-02-17T09:14:58;34.42;;;18.58;;
9310;SDS011;4694;52.464;13.480;2023-02-17T09:17:26;32.67;;;19.30;;
9310;SDS011;4694;52.464;13.480;2023-02-17T09:19:53;32.65;;;18.70;;
9310;SDS011;4694;52.464;13.480;2023-02-17T09:22:20;31.73;;;18.30;;
9310;SDS011;4694;52.464;13.480;2023-02-17T09:24:49;34.08;;;20.02;;
9310;SDS011;4694;52.464;13.480;2023-02-17T09:27:16;33.78;;;20.27;;
9310;SDS011;4694;52.464;13.480;2023-02-17T09:29:44;33.00;;;19.90;;
9310;SDS011;4694;52.464;13.480;2023-02-17T09:32:11;38.08;;;19.30;;
9310;SDS011;4694;52.464;13.480;2023-02-17T09:34:38;33.10;;;18.80;;
9310;SDS011;4694;52.464;13.480;2023-02-17T09:37:09;31.98;;;17.77;;
9310;SDS011;4694;52.464;13.480;2023-02-17T09:39:36;33.20;;;19.40;;
9310;SDS011;4694;52.464;13.480;2023-02-17T09:42:03;32.75;;;19.80;;
9310;SDS011;4694;52.464;13.480;2023-02-17T09:44:31;32.58;;;20.15;;
9310;SDS011;4694;52.464;13.480;2023-02-17T09:47:01;33.05;;;18.45;;
9310;SDS011;4694;52.464;13.480;2023-02-17T09:49:34;36.80;;;22.20;;
9310;SDS011;4694;52.464;13.480;2023-02-17T09:52:04;40.67;;;21.70;;
9310;SDS011;4694;52.464;13.480;2023-02-17T09:54:33;30.83;;;19.90;;
9310;SDS011;4694;52.464;13.480;2023-02-17T09:57:03;35.38;;;21.65;;
9310;SDS011;4694;52.464;13.480;2023-02-17T09:59:33;33.88;;;19.00;;
9310;SDS011;4694;52.464;13.480;2023-02-17T10:02:06;38.30;;;19.77;;
9310;SDS011;4694;52.464;13.480;2023-02-17T10:04:38;33.85;;;19.77;;
9310;SDS011;4694;52.464;13.480;2023-02-17T10:07:08;40.50;;;21.95;;
9310;SDS011;4694;52.464;13.480;2023-02-17T10:09:38;37.92;;;21.13;;
9310;SDS011;4694;52.464;13.480;2023-02-17T10:12:11;39.05;;;21.00;;
9310;SDS011;4694;52.464;13.480;2023-02-17T10:15:15;34.33;;;21.52;;
9310;SDS011;4694;52.464;13.480;2023-02-17T10:20:30;38.95;;;21.88;;
9310;SDS011;4694;52.464;13.480;2023-02-17T10:23:00;42.28;;;21.90;;
9310;SDS011;4694;52.464;13.480;2023-02-17T10:26:02;42.47;;;22.95;;
9310;SDS011;4694;52.464;13.480;2023-02-17T10:28:37;40.67;;;24.30;;
9310;SDS011;4694;52.464;13.480;2023-02-17T10:31:14;42.38;;;24.27;;
9310;SDS011;4694;52.464;13.480;2023-02-17T10:33:47;41.72;;;23.00;;
9310;SDS011;4694;52.464;13.480;2023-02-17T10:36:21;41.92;;;23.80;;
9310;SDS011;4694;52.464;13.480;2023-02-17T10:38:50;45.35;;;24.15;;
9310;SDS011;4694;52.464;13.480;2023-02-17T10:41:19;43.00;;;24.17;;
9310;SDS011;4694;52.464;13.480;2023-02-17T10:43:47;44.15;;;24.52;;
9310;SDS011;4694;52.464;13.480;2023-02-17T10:46:15;46.42;;;25.55;;
9310;SDS011;4694;52.464;13.480;2023-02-17T10:48:44;43.70;;;24.35;;
9310;SDS011;4694;52.464;13.480;2023-02-17T10:51:13;46.08;;;24.23;;
9310;SDS011;4694;52.464;13.480;2023-02-17T10:53:46;43.33;;;24.58;;
9310;SDS011;4694;52.464;13.480;2023-02-17T10:56:15;43.85;;;25.17;;
9310;SDS011;4694;52.464;13.480;2023-02-17T10:58:46;41.88;;;23.45;;
9310;SDS011;4694;52.464;13.480;2023-02-17T11:01:14;42.28;;;23.92;;
9310;SDS011;4694;52.464;13.480;2023-02-17T11:03:41;42.67;;;23.58;;
9310;SDS011;4694;52.464;13.480;2023-02-17T11:06:14;43.90;;;24.33;;
9310;SDS011;4694;52.464;13.480;2023-02-17T11:08:45;47.47;;;25.17;;
9310;SDS011;4694;52.464;13.480;2023-02-17T11:11:18;51.80;;;25.35;;
9310;SDS011;4694;52.464;13.480;2023-02-17T11:13:55;44.92;;;23.77;;
9310;SDS011;4694;52.464;13.480;2023-02-17T11:16:24;43.63;;;24.98;;
9310;SDS011;4694;52.464;13.480;2023-02-17T11:18:54;39.10;;;21.10;;
9310;SDS011;4694;52.464;13.480;2023-02-17T11:21:21;44.20;;;24.55;;
9310;SDS011;4694;52.464;13.480;2023-02-17T11:23:51;46.75;;;24.75;;
9310;SDS011;4694;52.464;13.480;2023-02-17T11:26:20;40.47;;;21.37;;
9310;SDS011;4694;52.464;13.480;2023-02-17T11:28:48;34.97;;;19.83;;
9310;SDS011;4694;52.464;13.480;2023-02-17T11:31:21;38.10;;;22.75;;
9310;SDS011;4694;52.464;13.480;2023-02-17T11:33:48;37.58;;;21.40;;
9310;SDS011;4694;52.464;13.480;2023-02-17T11:36:21;31.40;;;18.40;;
9310;SDS011;4694;52.464;13.480;2023-02-17T11:38:49;39.05;;;20.38;;
9310;SDS011;4694;52.464;13.480;2023-02-17T11:41:16;33.58;;;19.55;;
9310;SDS011;4694;52.464;13.480;2023-02-17T11:43:51;35.75;;;19.13;;
9310;SDS011;4694;52.464;13.480;2023-02-17T11:46:21;32.65;;;18.60;;
9310;SDS011;4694;52.464;13.480;2023-02-17T11:49:05;30.45;;;18.80;;
9310;SDS011;4694;52.464;13.480;2023-02-17T11:51:37;29.23;;;17.90;;
9310;SDS011;4694;52.464;13.480;2023-02-17T11:54:11;35.85;;;19.05;;
9310;SDS011;4694;52.464;13.480;2023-02-17T11:56:43;28.40;;;18.38;;
9310;SDS011;4694;52.464;13.480;2023-02-17T11:59:17;29.00;;;17.10;;
9310;SDS011;4694;52.464;13.480;2023-02-17T12:01:58;29.65;;;15.70;;
9310;SDS011;4694;52.464;13.480;2023-02-17T12:04:30;32.42;;;17.60;;
9310;SDS011;4694;52.464;13.480;2023-02-17T12:09:46;26.35;;;14.00;;
9310;SDS011;4694;52.464;13.480;2023-02-17T12:12:16;20.85;;;14.23;;
9310;SDS011;4694;52.464;13.480;2023-02-17T12:17:15;22.23;;;12.93;;
9310;SDS011;4694;52.464;13.480;2023-02-17T12:22:21;18.50;;;11.95;;
9310;SDS011;4694;52.464;13.480;2023-02-17T12:24:57;14.43;;;10.48;;
9310;SDS011;4694;52.464;13.480;2023-02-17T12:27:30;17.17;;;10.48;;
9310;SDS011;4694;52.464;13.480;2023-02-17T12:30:02;17.42;;;10.52;;
9310;SDS011;4694;52.464;13.480;2023-02-17T12:32:35;16.00;;;9.02;;
9310;SDS011;4694;52.464;13.480;2023-02-17T12:35:12;12.30;;;9.07;;
9310;SDS011;4694;52.464;13.480;2023-02-17T12:37:44;13.07;;;9.10;;
9310;SDS011;4694;52.464;13.480;2023-02-17T12:42:41;18.45;;;9.73;;
9310;SDS011;4694;52.464;13.480;2023-02-17T12:47:37;15.98;;;9.68;;
9310;SDS011;4694;52.464;13.480;2023-02-17T12:50:05;13.15;;;7.85;;
9310;SDS011;4694;52.464;13.480;2023-02-17T12:52:34;11.05;;;6.95;;
9310;SDS011;4694;52.464;13.480;2023-02-17T12:55:03;14.13;;;7.85;;
9310;SDS011;4694;52.464;13.480;2023-02-17T12:57:37;10.93;;;8.00;;
9310;SDS011;4694;52.464;13.480;2023-02-17T13:02:40;11.23;;;7.10;;
9310;SDS011;4694;52.464;13.480;2023-02-17T13:05:10;10.98;;;7.65;;
9310;SDS011;4694;52.464;13.480;2023-02-17T13:07:44;10.77;;;6.05;;
9310;SDS011;4694;52.464;13.480;2023-02-17T13:10:25;11.05;;;6.88;;
9310;SDS011;4694;52.464;13.480;2023-02-17T13:12:54;8.70;;;5.80;;
9310;SDS011;4694;52.464;13.480;2023-02-17T13:15:26;10.30;;;6.70;;
9310;SDS011;4694;52.464;13.480;2023-02-17T13:17:56;10.80;;;7.78;;
9310;SDS011;4694;52.464;13.480;2023-02-17T13:20:27;10.25;;;5.97;;
9310;SDS011;4694;52.464;13.480;2023-02-17T13:23:04;9.40;;;6.15;;
9310;SDS011;4694;52.464;13.480;2023-02-17T13:25:32;8.45;;;7.15;;
9310;SDS011;4694;52.464;13.480;2023-02-17T13:28:00;9.98;;;6.72;;
9310;SDS011;4694;52.464;13.480;2023-02-17T13:30:29;8.38;;;5.88;;
9310;SDS011;4694;52.464;13.480;2023-02-17T13:33:01;8.60;;;6.40;;
9310;SDS011;4694;52.464;13.480;2023-02-17T13:35:30;9.70;;;6.63;;
9310;SDS011;4694;52.464;13.480;2023-02-17T13:37:57;10.05;;;6.18;;
9310;SDS011;4694;52.464;13.480;2023-02-17T13:40:31;8.40;;;5.50;;
9310;SDS011;4694;52.464;13.480;2023-02-17T13:43:06;8.80;;;6.00;;
9310;SDS011;4694;52.464;13.480;2023-02-17T13:45:38;7.32;;;5.47;;
9310;SDS011;4694;52.464;13.480;2023-02-17T13:48:23;6.20;;;5.60;;
9310;SDS011;4694;52.464;13.480;2023-02-17T13:50:52;8.90;;;5.68;;
9310;SDS011;4694;52.464;13.480;2023-02-17T13:53:21;10.00;;;5.40;;
9310;SDS011;4694;52.464;13.480;2023-02-17T13:55:48;10.02;;;5.28;;
9310;SDS011;4694;52.464;13.480;2023-02-17T13:58:20;6.35;;;5.18;;
9310;SDS011;4694;52.464;13.480;2023-02-17T14:00:47;5.30;;;3.92;;
9310;SDS011;4694;52.464;13.480;2023-02-17T14:03:16;6.88;;;5.13;;
9310;SDS011;4694;52.464;13.480;2023-02-17T14:05:48;5.72;;;3.65;;
9310;SDS011;4694;52.464;13.480;2023-02-17T14:08:16;6.75;;;4.97;;
9310;SDS011;4694;52.464;13.480;2023-02-17T14:10:44;9.35;;;5.15;;
9310;SDS011;4694;52.464;13.480;2023-02-17T14:13:11;6.35;;;4.10;;
9310;SDS011;4694;52.464;13.480;2023-02-17T14:15:47;5.05;;;3.83;;
9310;SDS011;4694;52.464;13.480;2023-02-17T14:18:15;7.80;;;4.32;;
9310;SDS011;4694;52.464;13.480;2023-02-17T14:20:42;4.50;;;3.30;;
9310;SDS011;4694;52.464;13.480;2023-02-17T14:23:12;5.65;;;3.33;;
9310;SDS011;4694;52.464;13.480;2023-02-17T14:25:40;5.65;;;3.28;;
9310;SDS011;4694;52.464;13.480;2023-02-17T14:28:16;5.03;;;3.75;;
9310;SDS011;4694;52.464;13.480;2023-02-17T14:30:43;4.80;;;4.00;;
9310;SDS011;4694;52.464;13.480;2023-02-17T14:33:17;7.07;;;3.78;;
9310;SDS011;4694;52.464;13.480;2023-02-17T14:35:48;5.50;;;3.35;;
9310;SDS011;4694;52.464;13.480;2023-02-17T14:40:44;4.97;;;3.33;;
9310;SDS011;4694;52.464;13.480;2023-02-17T14:43:12;4.70;;;3.83;;
9310;SDS011;4694;52.464;13.480;2023-02-17T14:45:39;5.13;;;4.47;;
9310;SDS011;4694;52.464;13.480;2023-02-17T14:48:06;6.20;;;3.95;;
9310;SDS011;4694;52.464;13.480;2023-02-17T14:50:33;5.50;;;4.00;;
9310;SDS011;4694;52.464;13.480;2023-02-17T14:53:08;6.22;;;4.95;;
9310;SDS011;4694;52.464;13.480;2023-02-17T14:55:36;8.15;;;5.57;;
9310;SDS011;4694;52.464;13.480;2023-02-17T14:58:13;7.13;;;4.60;;
9310;SDS011;4694;52.464;13.480;2023-02-17T15:00:43;7.70;;;5.30;;
9310;SDS011;4694;52.464;13.480;2023-02-17T15:03:10;7.15;;;4.70;;
9310;SDS011;4694;52.464;13.480;2023-02-17T15:05:38;8.80;;;6.47;;
9310;SDS011;4694;52.464;13.480;2023-02-17T15:08:05;9.40;;;6.90;;
9310;SDS011;4694;52.464;13.480;2023-02-17T15:10:33;10.68;;;7.57;;
9310;SDS011;4694;52.464;13.480;2023-02-17T15:13:03;10.82;;;6.68;;
9310;SDS011;4694;52.464;13.480;2023-02-17T15:15:32;12.77;;;7.82;;
9310;SDS011;4694;52.464;13.480;2023-02-17T15:18:00;12.65;;;7.47;;
9310;SDS011;4694;52.464;13.480;2023-02-17T15:20:27;10.65;;;8.70;;
9310;SDS011;4694;52.464;13.480;2023-02-17T15:22:54;12.30;;;8.63;;
9310;SDS011;4694;52.464;13.480;2023-02-17T15:25:23;15.27;;;9.77;;
9310;SDS011;4694;52.464;13.480;2023-02-17T15:27:50;15.05;;;9.05;;
9310;SDS011;4694;52.464;13.480;2023-02-17T15:30:18;14.45;;;9.40;;
9310;SDS011;4694;52.464;13.480;2023-02-17T15:32:48;16.30;;;9.63;;
9310;SDS011;4694;52.464;13.480;2023-02-17T15:35:15;12.13;;;8.57;;
9310;SDS011;4694;52.464;13.480;2023-02-17T15:37:43;17.70;;;10.73;;
9310;SDS011;4694;52.464;13.480;2023-02-17T15:40:14;17.08;;;10.18;;
9310;SDS011;4694;52.464;13.480;2023-02-17T15:42:41;14.88;;;9.55;;
9310;SDS011;4694;52.464;13.480;2023-02-17T15:45:10;15.65;;;10.90;;
9310;SDS011;4694;52.464;13.480;2023-02-17T15:47:38;19.35;;;10.32;;
9310;SDS011;4694;52.464;13.480;2023-02-17T15:50:10;18.85;;;10.98;;
9310;SDS011;4694;52.464;13.480;2023-02-17T15:52:41;19.23;;;11.05;;
9310;SDS011;4694;52.464;13.480;2023-02-17T15:55:08;18.77;;;11.52;;
9310;SDS011;4694;52.464;13.480;2023-02-17T15:57:35;16.50;;;10.20;;
9310;SDS011;4694;52.464;13.480;2023-02-17T16:00:04;19.88;;;10.13;;
9310;SDS011;4694;52.464;13.480;2023-02-17T16:02:32;16.73;;;11.23;;
9310;SDS011;4694;52.464;13.480;2023-02-17T16:04:59;17.85;;;13.63;;
9310;SDS011;4694;52.464;13.480;2023-02-17T16:07:27;18.77;;;10.43;;
9310;SDS011;4694;52.464;13.480;2023-02-17T16:09:54;20.08;;;11.27;;
9310;SDS011;4694;52.464;13.480;2023-02-17T16:12:21;16.85;;;11.07;;
9310;SDS011;4694;52.464;13.480;2023-02-17T16:14:50;17.63;;;10.95;;
9310;SDS011;4694;52.464;13.480;2023-02-17T16:17:17;18.23;;;10.55;;
9310;SDS011;4694;52.464;13.480;2023-02-17T16:19:45;22.25;;;12.32;;
9310;SDS011;4694;52.464;13.480;2023-02-17T16:22:12;18.80;;;11.52;;
9310;SDS011;4694;52.464;13.480;2023-02-17T16:24:40;13.35;;;9.00;;
9310;SDS011;4694;52.464;13.480;2023-02-17T16:27:07;16.70;;;10.02;;
9310;SDS011;4694;52.464;13.480;2023-02-17T16:29:37;15.90;;;10.10;;
9310;SDS011;4694;52.464;13.480;2023-02-17T16:32:04;14.95;;;9.98;;
9310;SDS011;4694;52.464;13.480;2023-02-17T16:34:31;17.23;;;10.85;;
9310;SDS011;4694;52.464;13.480;2023-02-17T16:36:59;12.80;;;9.48;;
9310;SDS011;4694;52.464;13.480;2023-02-17T16:39:27;14.25;;;9.18;;
9310;SDS011;4694;52.464;13.480;2023-02-17T16:41:55;16.85;;;10.65;;
9310;SDS011;4694;52.464;13.480;2023-02-17T16:44:22;17.60;;;9.35;;
9310;SDS011;4694;52.464;13.480;2023-02-17T16:46:51;14.07;;;9.10;;
9310;SDS011;4694;52.464;13.480;2023-02-17T16:49:19;12.32;;;7.80;;
9310;SDS011;4694;52.464;13.480;2023-02-17T16:51:47;9.18;;;6.60;;
9310;SDS011;4694;52.464;13.480;2023-02-17T16:54:15;11.63;;;6.95;;
9310;SDS011;4694;52.464;13.480;2023-02-17T16:56:43;10.23;;;6.85;;
9310;SDS011;4694;52.464;13.480;2023-02-17T16:59:13;10.07;;;6.72;;
9310;SDS011;4694;52.464;13.480;2023-02-17T17:01:41;9.68;;;6.22;;
9310;SDS011;4694;52.464;13.480;2023-02-17T17:04:08;8.52;;;5.60;;
9310;SDS011;4694;52.464;13.480;2023-02-17T17:06:35;7.82;;;5.00;;
9310;SDS011;4694;52.464;13.480;2023-02-17T17:09:03;8.95;;;5.88;;
9310;SDS011;4694;52.464;13.480;2023-02-17T17:11:30;6.90;;;4.85;;
9310;SDS011;4694;52.464;13.480;2023-02-17T17:13:57;8.60;;;5.60;;
9310;SDS011;4694;52.464;13.480;2023-02-17T17:16:29;8.00;;;5.38;;
9310;SDS011;4694;52.464;13.480;2023-02-17T17:18:58;7.93;;;4.78;;
9310;SDS011;4694;52.464;13.480;2023-02-17T17:21:26;6.97;;;4.68;;
9310;SDS011;4694;52.464;13.480;2023-02-17T17:23:53;10.70;;;6.43;;
9310;SDS011;4694;52.464;13.480;2023-02-17T17:26:22;7.40;;;5.30;;
9310;SDS011;4694;52.464;13.480;2023-02-17T17:28:50;8.35;;;5.30;;
9310;SDS011;4694;52.464;13.480;2023-02-17T17:31:17;8.02;;;4.93;;
9310;SDS011;4694;52.464;13.480;2023-02-17T17:33:46;10.73;;;6.75;;
9310;SDS011;4694;52.464;13.480;2023-02-17T17:36:17;8.18;;;5.32;;
9310;SDS011;4694;52.464;13.480;2023-02-17T17:38:45;10.05;;;5.45;;
9310;SDS011;4694;52.464;13.480;2023-02-17T17:41:12;6.13;;;3.78;;
9310;SDS011;4694;52.464;13.480;2023-02-17T17:43:40;4.35;;;3.45;;
9310;SDS011;4694;52.464;13.480;2023-02-17T17:46:10;6.30;;;4.10;;
9310;SDS011;4694;52.464;13.480;2023-02-17T17:48:38;5.78;;;3.50;;
9310;SDS011;4694;52.464;13.480;2023-02-17T17:51:06;7.03;;;4.65;;
9310;SDS011;4694;52.464;13.480;2023-02-17T17:53:34;6.43;;;3.65;;
9310;SDS011;4694;52.464;13.480;2023-02-17T17:56:01;5.57;;;3.60;;
9310;SDS011;4694;52.464;13.480;2023-02-17T17:58:28;5.10;;;3.67;;
9310;SDS011;4694;52.464;13.480;2023-02-17T18:00:55;5.07;;;2.75;;
9310;SDS011;4694;52.464;13.480;2023-02-17T18:03:22;10.57;;;4.40;;
9310;SDS011;4694;52.464;13.480;2023-02-17T18:05:50;8.18;;;4.35;;
9310;SDS011;4694;52.464;13.480;2023-02-17T18:08:18;5.95;;;2.88;;
9310;SDS011;4694;52.464;13.480;2023-02-17T18:10:45;6.43;;;4.18;;
9310;SDS011;4694;52.464;13.480;2023-02-17T18:13:12;4.38;;;3.90;;
9310;SDS011;4694;52.464;13.480;2023-02-17T18:15:40;6.72;;;3.38;;
9310;SDS011;4694;52.464;13.480;2023-02-17T18:18:07;9.38;;;3.22;;
9310;SDS011;4694;52.464;13.480;2023-02-17T18:20:34;5.35;;;2.78;;
9310;SDS011;4694;52.464;13.480;2023-02-17T18:23:01;4.50;;;2.60;;
9310;SDS011;4694;52.464;13.480;2023-02-17T18:25:30;4.75;;;2.72;;
9310;SDS011;4694;52.464;13.480;2023-02-17T18:27:57;9.20;;;3.85;;
9310;SDS011;4694;52.464;13.480;2023-02-17T18:30:24;8.52;;;3.55;;
9310;SDS011;4694;52.464;13.480;2023-02-17T18:32:52;6.90;;;4.00;;
9310;SDS011;4694;52.464;13.480;2023-02-17T18:35:19;7.68;;;3.67;;
9310;SDS011;4694;52.464;13.480;2023-02-17T18:37:46;7.25;;;3.63;;
9310;SDS011;4694;52.464;13.480;2023-02-17T18:40:15;9.02;;;4.13;;
9310;SDS011;4694;52.464;13.480;2023-02-17T18:42:43;6.22;;;3.00;;
9310;SDS011;4694;52.464;13.480;2023-02-17T18:45:11;5.82;;;2.90;;
9310;SDS011;4694;52.464;13.480;2023-02-17T18:47:39;7.97;;;4.63;;
9310;SDS011;4694;52.464;13.480;2023-02-17T18:50:08;5.68;;;2.03;;
9310;SDS011;4694;52.464;13.480;2023-02-17T18:52:35;4.10;;;2.08;;
9310;SDS011;4694;52.464;13.480;2023-02-17T18:55:02;5.05;;;2.35;;
9310;SDS011;4694;52.464;13.480;2023-02-17T18:57:30;8.52;;;2.50;;
9310;SDS011;4694;52.464;13.480;2023-02-17T18:59:58;4.82;;;1.77;;
9310;SDS011;4694;52.464;13.480;2023-02-17T19:02:25;7.28;;;2.78;;
9310;SDS011;4694;52.464;13.480;2023-02-17T19:04:53;5.35;;;2.55;;
9310;SDS011;4694;52.464;13.480;2023-02-17T19:07:20;4.30;;;1.10;;
9310;SDS011;4694;52.464;13.480;2023-02-17T19:09:48;6.65;;;1.40;;
9310;SDS011;4694;52.464;13.480;2023-02-17T19:12:17;9.80;;;2.58;;
9310;SDS011;4694;52.464;13.480;2023-02-17T19:14:44;7.35;;;2.55;;
9310;SDS011;4694;52.464;13.480;2023-02-17T19:17:13;14.00;;;1.95;;
9310;SDS011;4694;52.464;13.480;2023-02-17T19:19:42;7.05;;;1.50;;
9310;SDS011;4694;52.464;13.480;2023-02-17T19:22:09;4.88;;;1.98;;
9310;SDS011;4694;52.464;13.480;2023-02-17T19:24:36;6.07;;;1.75;;
9310;SDS011;4694;52.464;13.480;2023-02-17T19:27:04;5.75;;;1.85;;
9310;SDS011;4694;52.464;13.480;2023-02-17T19:29:31;4.88;;;1.33;;
9310;SDS011;4694;52.464;13.480;2023-02-17T19:31:59;5.15;;;1.15;;
9310;SDS011;4694;52.464;13.480;2023-02-17T19:34:28;7.47;;;1.77;;
9310;SDS011;4694;52.464;13.480;2023-02-17T19:36:55;5.47;;;0.88;;
9310;SDS011;4694;52.464;13.480;2023-02-17T19:39:22;7.55;;;0.90;;
9310;SDS011;4694;52.464;13.480;2023-02-17T19:41:49;4.68;;;0.82;;
9310;SDS011;4694;52.464;13.480;2023-02-17T19:44:16;7.43;;;0.77;;
9310;SDS011;4694;52.464;13.480;2023-02-17T19:46:44;2.88;;;0.90;;
9310;SDS011;4694;52.464;13.480;2023-02-17T19:49:11;3.90;;;1.33;;
9310;SDS011;4694;52.464;13.480;2023-02-17T19:51:39;5.38;;;0.90;;
9310;SDS011;4694;52.464;13.480;2023-02-17T19:54:06;8.48;;;2.90;;
9310;SDS011;4694;52.464;13.480;2023-02-17T19:56:33;5.65;;;0.93;;
9310;SDS011;4694;52.464;13.480;2023-02-17T19:59:01;4.38;;;0.65;;
9310;SDS011;4694;52.464;13.480;2023-02-17T20:01:29;3.70;;;0.70;;
9310;SDS011;4694;52.464;13.480;2023-02-17T20:03:56;5.43;;;1.65;;
9310;SDS011;4694;52.464;13.480;2023-02-17T20:06:25;4.18;;;0.60;;
9310;SDS011;4694;52.464;13.480;2023-02-17T20:08:56;3.75;;;1.85;;
9310;SDS011;4694;52.464;13.480;2023-02-17T20:11:24;10.88;;;2.42;;
9310;SDS011;4694;52.464;13.480;2023-02-17T20:13:51;4.35;;;2.03;;
9310;SDS011;4694;52.464;13.480;2023-02-17T20:16:18;5.10;;;0.60;;
9310;SDS011;4694;52.464;13.480;2023-02-17T20:18:47;6.32;;;0.98;;
9310;SDS011;4694;52.464;13.480;2023-02-17T20:21:15;4.07;;;0.80;;
9310;SDS011;4694;52.464;13.480;2023-02-17T20:23:42;10.88;;;1.25;;
9310;SDS011;4694;52.464;13.480;2023-02-17T20:26:12;10.25;;;0.80;;
9310;SDS011;4694;52.464;13.480;2023-02-17T20:28:40;5.38;;;0.88;;
